createdAt,value
2017-08-22T19:25:00.345Z,6164
2017-08-22T19:25:28.400Z,5936
2017-08-22T19:25:56.457Z,5668
2017-08-22T19:26:25.305Z,5416
2017-08-22T19:26:54.143Z,5356
2017-08-22T19:27:22.895Z,5368
2017-08-22T19:27:51.751Z,5304
2017-08-22T19:28:19.716Z,5240
2017-08-22T19:28:48.441Z,5164
2017-08-22T19:29:17.099Z,5068
2017-08-22T19:29:45.171Z,5048
2017-08-22T19:30:13.231Z,5044
2017-08-22T19:30:41.314Z,5036
2017-08-22T19:31:09.378Z,5080
2017-08-22T19:31:38.220Z,5104
2017-08-22T19:32:06.182Z,5092
2017-08-22T19:32:34.960Z,5040
2017-08-22T19:33:02.844Z,5012
2017-08-22T19:33:30.822Z,5104
2017-08-22T19:33:58.885Z,5248
2017-08-22T19:34:26.976Z,5288
2017-08-22T19:34:54.887Z,5200
2017-08-22T19:35:23.656Z,5104
2017-08-22T19:35:52.806Z,5044
2017-08-22T19:36:21.988Z,5088
2017-08-22T19:36:51.047Z,5176
2017-08-22T19:37:19.259Z,5144
2017-08-22T19:37:49.078Z,4980
2017-08-22T19:38:17.713Z,4804
2017-08-22T19:38:46.436Z,4724
2017-08-22T19:39:14.894Z,4676
2017-08-22T19:39:45.491Z,4636
2017-08-22T19:40:13.930Z,4564
2017-08-22T19:40:41.952Z,4452
2017-08-22T19:41:10.819Z,4388
2017-08-22T19:41:38.728Z,4324
2017-08-22T19:42:06.696Z,4308
2017-08-22T19:42:34.668Z,4428
2017-08-22T19:43:02.756Z,4556
2017-08-22T19:43:30.819Z,4652
2017-08-22T19:43:58.804Z,4676
2017-08-22T19:44:26.784Z,4600
2017-08-22T19:44:56.219Z,4496
2017-08-22T19:45:24.013Z,4524
2017-08-22T19:45:52.784Z,4624
2017-08-22T19:46:20.778Z,4668
2017-08-22T19:46:48.853Z,4608
2017-08-22T19:47:16.837Z,4544
2017-08-22T19:47:44.898Z,4504
2017-08-22T19:48:14.461Z,4476
2017-08-22T19:48:42.430Z,4456
2017-08-22T19:49:10.314Z,4436
2017-08-22T19:49:38.153Z,4432
2017-08-22T19:50:06.112Z,4508
2017-08-22T19:50:34.094Z,4632
2017-08-22T19:51:02.077Z,4656
2017-08-22T19:51:30.133Z,4520
2017-08-22T19:51:58.110Z,4324
2017-08-22T19:52:26.178Z,4172
2017-08-22T19:52:55.826Z,4128
2017-08-22T19:53:24.663Z,4180
2017-08-22T19:53:52.762Z,4228
2017-08-22T19:54:20.557Z,4236
2017-08-22T19:54:49.383Z,4292
2017-08-22T19:55:17.546Z,4364
2017-08-22T19:55:45.608Z,4412
2017-08-22T19:56:13.571Z,4396
2017-08-22T19:56:41.528Z,4364
2017-08-22T19:57:09.497Z,4352
2017-08-22T19:57:37.686Z,4272
2017-08-22T19:58:06.532Z,4196
2017-08-22T19:58:34.593Z,4176
2017-08-22T19:59:02.479Z,4180
2017-08-22T19:59:30.436Z,4192
2017-08-22T19:59:59.313Z,4156
2017-08-22T20:00:27.277Z,4136
2017-08-22T20:00:55.719Z,4144
2017-08-22T20:01:23.753Z,4060
2017-08-22T20:01:53.364Z,3896
2017-08-22T20:02:21.264Z,3732
2017-08-22T20:02:50.072Z,3572
2017-08-22T20:03:18.118Z,3504
2017-08-22T20:04:25.241Z,3572
2017-08-22T20:04:53.976Z,3692
2017-08-22T20:05:22.731Z,3768
2017-08-22T20:05:50.776Z,3816
2017-08-22T20:06:18.754Z,3828
2017-08-22T20:06:46.824Z,3804
2017-08-22T20:07:16.455Z,3764
2017-08-22T20:07:44.322Z,3816
2017-08-22T20:08:12.268Z,3880
2017-08-22T20:08:40.224Z,3996
2017-08-22T20:09:08.275Z,4200
2017-08-22T20:09:36.322Z,4572
2017-08-22T20:10:04.574Z,5076
2017-08-22T20:10:32.537Z,5560
2017-08-22T20:11:00.597Z,5932
2017-08-22T20:11:29.339Z,6140
2017-08-22T20:11:58.177Z,6192
2017-08-22T20:12:26.243Z,6136
2017-08-22T20:12:54.309Z,6112
2017-08-22T20:13:22.366Z,6140
2017-08-22T20:13:50.347Z,6144
2017-08-22T20:14:18.440Z,6100
2017-08-22T20:14:46.512Z,5972
2017-08-22T20:15:14.572Z,5688
2017-08-22T20:15:42.529Z,5324
2017-08-22T20:16:11.370Z,4984
2017-08-22T20:16:39.336Z,4732
2017-08-22T20:17:07.404Z,4520
2017-08-22T20:17:36.248Z,4428
2017-08-22T20:18:05.878Z,4352
2017-08-22T20:18:33.856Z,4284
2017-08-22T20:19:02.067Z,4228
2017-08-22T20:19:30.030Z,4176
2017-08-22T20:19:58.098Z,4144
2017-08-22T20:20:26.131Z,4096
2017-08-22T20:20:54.096Z,4040
2017-08-22T20:21:22.042Z,3992
2017-08-22T20:21:49.896Z,3956
2017-08-22T20:22:17.758Z,3900
2017-08-22T20:22:45.702Z,3848
2017-08-22T20:23:14.107Z,3832
2017-08-22T20:23:41.967Z,3868
2017-08-22T20:24:10.762Z,3876
2017-08-22T20:24:39.499Z,3784
2017-08-22T20:25:07.498Z,3576
2017-08-22T20:25:35.699Z,3288
2017-08-22T20:26:03.775Z,2992
2017-08-22T20:26:32.617Z,2676
2017-08-22T20:27:00.673Z,2428
2017-08-22T20:27:28.726Z,2216
2017-08-22T20:27:56.616Z,2020
2017-08-22T20:28:24.592Z,1852
2017-08-22T20:28:52.642Z,1720
2017-08-22T20:29:20.725Z,1648
2017-08-22T20:29:49.565Z,1596
2017-08-22T20:30:18.409Z,1540
2017-08-22T20:30:46.377Z,1484
2017-08-22T20:31:15.217Z,1436
2017-08-22T20:31:43.279Z,1384
2017-08-22T20:32:11.339Z,1332
2017-08-22T20:32:39.416Z,1280
2017-08-22T20:33:07.479Z,1228
2017-08-22T20:33:36.232Z,1168
2017-08-22T20:34:04.167Z,1108
2017-08-22T20:34:32.920Z,1068
2017-08-22T20:35:01.759Z,1036
2017-08-22T20:35:30.501Z,1008
2017-08-22T20:35:58.546Z,976
2017-08-22T20:36:26.607Z,936
2017-08-22T20:36:54.565Z,888
2017-08-22T20:37:24.091Z,844
2017-08-22T20:37:52.864Z,800
2017-08-22T20:38:21.702Z,764
2017-08-22T20:38:49.740Z,724
2017-08-22T20:39:17.720Z,700
2017-08-22T20:39:45.774Z,680
2017-08-22T20:40:13.890Z,652
2017-08-22T20:40:42.630Z,628
2017-08-22T20:41:10.577Z,592
2017-08-22T20:41:40.193Z,568
2017-08-22T20:42:08.926Z,544
2017-08-22T20:42:36.979Z,520
2017-08-22T20:43:43.141Z,468
2017-08-22T20:44:11.204Z,452
2017-08-22T20:44:39.254Z,440
2017-08-22T20:45:07.303Z,432
2017-08-22T20:45:36.217Z,412
2017-08-22T20:46:04.931Z,396
2017-08-22T20:46:32.917Z,380
2017-08-22T20:47:00.794Z,368
2017-08-22T20:47:29.622Z,356
2017-08-22T20:47:57.687Z,340
2017-08-22T20:48:26.525Z,328
2017-08-22T20:48:54.485Z,316
2017-08-22T20:49:22.563Z,300
2017-08-22T20:49:50.516Z,284
2017-08-22T20:50:18.460Z,272
2017-08-22T20:50:47.285Z,252
2017-08-22T20:51:15.242Z,240
2017-08-22T20:51:44.852Z,220
2017-08-22T20:52:12.895Z,208
2017-08-22T20:52:40.867Z,192
2017-08-22T20:53:08.838Z,184
2017-08-22T20:53:36.813Z,172
2017-08-22T20:54:04.779Z,164
2017-08-22T20:54:32.919Z,156
2017-08-22T20:55:00.871Z,148
2017-08-22T20:55:31.414Z,144
2017-08-22T20:56:00.678Z,136
2017-08-22T20:56:28.650Z,124
2017-08-22T20:56:56.516Z,120
2017-08-22T20:57:26.036Z,112
2017-08-22T20:57:53.995Z,104
2017-08-22T20:58:22.053Z,100
2017-08-22T20:58:50.106Z,92
2017-08-22T20:59:18.162Z,88
2017-08-22T20:59:46.204Z,80
2017-08-22T21:00:14.160Z,72
2017-08-22T21:00:42.896Z,68
2017-08-22T21:01:11.727Z,64
2017-08-22T21:01:39.684Z,60
2017-08-22T21:02:07.635Z,52
2017-08-22T21:02:35.412Z,48
2017-08-22T21:03:03.368Z,44
2017-08-22T21:03:32.122Z,40
2017-08-22T21:04:01.731Z,36
2017-08-22T21:04:29.775Z,36
2017-08-22T21:04:58.612Z,28
2017-08-22T21:05:26.672Z,28
2017-08-22T21:05:55.514Z,28
2017-08-22T21:06:24.352Z,20
2017-08-22T21:06:52.402Z,20
2017-08-22T21:07:21.244Z,16
2017-08-22T21:07:49.163Z,12
2017-08-22T21:08:17.215Z,12
2017-08-22T21:08:45.181Z,12
2017-08-22T21:09:13.235Z,12
2017-08-22T21:09:41.390Z,8
2017-08-22T21:10:09.437Z,8
2017-08-22T21:10:37.549Z,4
2017-08-22T21:11:05.438Z,4
2017-08-22T21:11:34.266Z,8
2017-08-22T21:12:02.235Z,4
2017-08-22T21:12:30.193Z,8
2017-08-22T21:12:58.238Z,4
2017-08-22T21:13:27.047Z,4
2017-08-22T21:13:55.094Z,0
2017-08-22T21:14:23.142Z,4
2017-08-22T21:14:51.091Z,4
2017-08-22T21:15:19.924Z,4
2017-08-22T21:15:47.890Z,0
2017-08-22T21:16:15.946Z,0
2017-08-22T21:16:44.593Z,0
2017-08-22T21:17:13.438Z,0
2017-08-22T21:17:41.493Z,4
2017-08-22T21:18:10.318Z,4
2017-08-22T21:18:38.389Z,4
2017-08-22T21:19:07.236Z,4
2017-08-22T21:19:35.286Z,4
2017-08-22T21:20:04.105Z,4
2017-08-22T21:20:32.152Z,0
2017-08-22T21:21:00.202Z,0
2017-08-22T21:21:29.810Z,0
2017-08-22T21:21:58.843Z,0
2017-08-22T21:23:05.174Z,0
2017-08-22T21:23:33.217Z,0
2017-08-22T21:24:01.259Z,0
2017-08-22T21:24:30.085Z,0
2017-08-22T21:24:58.133Z,0
2017-08-22T21:25:26.184Z,0
2017-08-22T21:25:54.332Z,0
2017-08-22T21:26:22.290Z,0
2017-08-22T21:26:51.110Z,0
2017-08-22T21:27:19.077Z,0
2017-08-22T21:27:47.126Z,0
2017-08-22T21:28:15.175Z,0
2017-08-22T21:28:43.225Z,0
2017-08-22T21:29:11.268Z,0
2017-08-22T21:29:39.223Z,0
2017-08-22T21:30:07.956Z,0
2017-08-22T21:30:35.826Z,0
2017-08-22T21:31:03.875Z,0
2017-08-22T21:31:32.117Z,0
2017-08-22T21:32:00.168Z,0
2017-08-22T21:32:29.001Z,0
2017-08-22T21:32:57.750Z,0
2017-08-22T21:33:25.805Z,0
2017-08-22T21:33:53.850Z,0
2017-08-22T21:34:22.678Z,0
2017-08-22T21:34:51.507Z,0
2017-08-22T21:35:19.555Z,0
2017-08-22T21:35:47.546Z,0
2017-08-22T21:36:15.497Z,0
2017-08-22T21:36:43.266Z,0
2017-08-22T21:37:11.327Z,0
2017-08-22T21:37:39.286Z,0
2017-08-22T21:38:08.030Z,0
2017-08-22T21:38:36.078Z,0
2017-08-22T21:39:04.816Z,0
2017-08-22T21:39:32.592Z,0
2017-08-22T21:40:00.549Z,0
2017-08-22T21:40:29.379Z,0
2017-08-22T21:40:59.201Z,0
2017-08-22T21:41:27.248Z,0
2017-08-22T21:41:56.080Z,0
2017-08-22T21:42:24.123Z,0
2017-08-22T21:42:52.175Z,0
2017-08-22T21:43:20.128Z,0
2017-08-22T21:43:48.181Z,0
2017-08-22T21:44:16.141Z,0
2017-08-22T21:44:44.976Z,0
2017-08-22T21:45:13.820Z,0
2017-08-22T21:45:41.874Z,0
2017-08-22T21:46:09.828Z,0
2017-08-22T21:46:37.888Z,0
2017-08-22T21:47:07.506Z,0
2017-08-22T21:47:35.556Z,0
2017-08-22T21:48:04.303Z,0
2017-08-22T21:48:33.138Z,0
2017-08-22T21:49:01.099Z,0
2017-08-22T21:49:29.205Z,0
2017-08-22T21:49:58.821Z,0
2017-08-22T21:50:26.790Z,0
2017-08-22T21:50:55.626Z,0
2017-08-22T21:51:23.581Z,0
2017-08-22T21:51:51.540Z,0
2017-08-22T21:52:19.589Z,0
2017-08-22T21:52:47.630Z,0
2017-08-22T21:53:15.674Z,0
2017-08-22T21:53:43.626Z,0
2017-08-22T21:54:11.664Z,0
2017-08-22T21:54:39.710Z,0
2017-08-22T21:55:08.543Z,0
2017-08-22T21:55:36.595Z,0
2017-08-22T21:56:05.581Z,0
2017-08-22T21:56:33.640Z,0
2017-08-22T21:57:01.613Z,0
2017-08-22T21:57:29.561Z,0
2017-08-22T21:57:57.630Z,0
2017-08-22T21:58:27.537Z,0
2017-08-22T21:58:56.299Z,0
2017-08-22T21:59:24.219Z,0
2017-08-22T21:59:52.256Z,0
2017-08-22T22:00:20.302Z,0
2017-08-22T22:00:50.692Z,0
2017-08-22T22:01:18.954Z,0
2017-08-22T22:02:25.287Z,0
2017-08-22T22:02:53.327Z,0
2017-08-22T22:03:22.363Z,0
2017-08-22T22:03:51.195Z,0
2017-08-22T22:04:19.150Z,0
2017-08-22T22:04:47.983Z,0
2017-08-22T22:05:16.817Z,0
2017-08-22T22:05:44.773Z,0
2017-08-22T22:06:12.632Z,0
2017-08-22T22:06:40.589Z,0
2017-08-22T22:07:08.636Z,0
2017-08-22T22:07:36.584Z,0
2017-08-22T22:08:04.638Z,0
2017-08-22T22:08:32.693Z,0
2017-08-22T22:09:00.552Z,0
2017-08-22T22:09:30.942Z,0
2017-08-22T22:09:59.006Z,0
2017-08-22T22:10:27.648Z,0
2017-08-22T22:10:56.573Z,0
2017-08-22T22:11:24.629Z,0
2017-08-22T22:11:52.683Z,0
2017-08-22T22:12:20.658Z,0
2017-08-22T22:12:48.711Z,0
2017-08-22T22:13:16.760Z,0
2017-08-22T22:13:44.712Z,0
2017-08-22T22:14:12.755Z,0
2017-08-22T22:14:41.503Z,0
2017-08-22T22:15:10.438Z,0
2017-08-22T22:15:39.180Z,0
2017-08-22T22:16:07.041Z,0
2017-08-22T22:16:35.096Z,0
2017-08-22T22:17:03.929Z,0
2017-08-22T22:17:31.983Z,0
2017-08-22T22:18:00.034Z,0
2017-08-22T22:18:28.865Z,0
2017-08-22T22:18:56.919Z,0
2017-08-22T22:19:25.746Z,0
2017-08-22T22:19:53.788Z,0
2017-08-22T22:20:21.739Z,0
2017-08-22T22:20:49.692Z,0
2017-08-22T22:21:17.603Z,0
2017-08-22T22:21:45.658Z,0
2017-08-22T22:22:13.708Z,0
2017-08-22T22:22:42.533Z,0
2017-08-22T22:23:10.581Z,0
2017-08-22T22:23:38.645Z,0
2017-08-22T22:24:06.615Z,0
2017-08-22T22:24:35.437Z,0
2017-08-22T22:25:03.360Z,0
2017-08-22T22:25:32.103Z,0
2017-08-22T22:26:00.167Z,0
2017-08-22T22:26:28.275Z,0
2017-08-22T22:26:56.227Z,0
2017-08-22T22:27:24.286Z,0
2017-08-22T22:27:52.253Z,0
2017-08-22T22:28:20.989Z,0
2017-08-22T22:28:49.820Z,0
2017-08-22T22:29:18.653Z,0
2017-08-22T22:29:49.055Z,0
2017-08-22T22:30:17.109Z,0
2017-08-22T22:30:45.935Z,0
2017-08-22T22:31:14.777Z,0
2017-08-22T22:31:42.731Z,0
2017-08-22T22:32:11.462Z,0
2017-08-22T22:32:39.506Z,0
2017-08-22T22:33:08.652Z,0
2017-08-22T22:33:36.612Z,0
2017-08-22T22:34:04.566Z,0
2017-08-22T22:34:32.526Z,0
2017-08-22T22:35:00.587Z,0
2017-08-22T22:35:29.425Z,0
2017-08-22T22:35:57.398Z,0
2017-08-22T22:36:25.380Z,0
2017-08-22T22:36:53.285Z,0
2017-08-22T22:37:21.345Z,0
2017-08-22T22:37:49.392Z,0
2017-08-22T22:38:17.444Z,0
2017-08-22T22:38:45.388Z,0
2017-08-22T22:39:13.429Z,0
2017-08-22T22:39:41.479Z,0
2017-08-22T22:40:10.220Z,0
2017-08-22T22:40:38.270Z,0
2017-08-22T22:41:44.762Z,0
2017-08-22T22:42:12.804Z,0
2017-08-22T22:42:40.844Z,0
2017-08-22T22:43:09.672Z,0
2017-08-22T22:43:38.515Z,0
2017-08-22T22:44:07.276Z,0
2017-08-22T22:44:35.331Z,0
2017-08-22T22:45:03.389Z,0
2017-08-22T22:45:31.422Z,0
2017-08-22T22:45:59.381Z,0
2017-08-22T22:46:27.426Z,0
2017-08-22T22:46:55.378Z,0
2017-08-22T22:47:23.340Z,0
2017-08-22T22:47:51.389Z,0
2017-08-22T22:48:19.434Z,0
2017-08-22T22:48:47.470Z,0
2017-08-22T22:49:15.428Z,0
2017-08-22T22:49:44.176Z,0
2017-08-22T22:50:12.218Z,0
2017-08-22T22:50:40.193Z,0
2017-08-22T22:51:08.246Z,0
2017-08-22T22:51:36.224Z,0
2017-08-22T22:52:05.064Z,0
2017-08-22T22:52:33.109Z,0
2017-08-22T22:53:01.149Z,0
2017-08-22T22:53:29.198Z,0
2017-08-22T22:53:57.247Z,0
2017-08-22T22:54:25.302Z,0
2017-08-22T22:54:54.134Z,0
2017-08-22T22:55:23.649Z,0
2017-08-22T22:55:52.486Z,0
2017-08-22T22:56:21.316Z,0
2017-08-22T22:56:49.516Z,0
2017-08-22T22:57:17.567Z,0
2017-08-22T22:57:45.607Z,0
2017-08-22T22:58:13.653Z,0
2017-08-22T22:58:41.699Z,0
2017-08-22T22:59:09.744Z,0
2017-08-22T22:59:37.698Z,0
2017-08-22T23:00:05.967Z,0
2017-08-22T23:00:33.926Z,0
2017-08-22T23:01:01.969Z,0
2017-08-22T23:01:30.023Z,0
2017-08-22T23:01:58.069Z,0
2017-08-22T23:02:26.106Z,0
2017-08-22T23:02:54.946Z,0
2017-08-22T23:03:24.475Z,0
2017-08-22T23:03:53.313Z,0
2017-08-22T23:04:21.361Z,0
2017-08-22T23:04:49.408Z,0
2017-08-22T23:05:17.473Z,0
2017-08-22T23:05:47.091Z,0
2017-08-22T23:06:15.135Z,0
2017-08-22T23:06:43.966Z,0
2017-08-22T23:07:11.931Z,0
2017-08-22T23:07:40.764Z,0
2017-08-22T23:08:08.808Z,0
2017-08-22T23:08:37.646Z,0
2017-08-22T23:09:05.607Z,0
2017-08-22T23:09:33.660Z,0
2017-08-22T23:10:02.393Z,0
2017-08-22T23:10:31.136Z,0
2017-08-22T23:10:59.178Z,0
2017-08-22T23:11:27.992Z,0
2017-08-22T23:11:56.187Z,0
2017-08-22T23:12:24.926Z,0
2017-08-22T23:12:52.964Z,0
2017-08-22T23:13:21.701Z,0
2017-08-22T23:13:49.762Z,0
2017-08-22T23:14:17.813Z,0
2017-08-22T23:14:45.768Z,0
2017-08-22T23:15:14.602Z,0
2017-08-22T23:15:42.570Z,0
2017-08-22T23:16:10.517Z,0
2017-08-22T23:16:39.357Z,0
2017-08-22T23:17:07.413Z,0
2017-08-22T23:17:36.240Z,0
2017-08-22T23:18:04.181Z,0
2017-08-22T23:18:32.782Z,0
2017-08-22T23:19:02.365Z,0
2017-08-22T23:19:30.226Z,0
2017-08-22T23:19:59.047Z,0
2017-08-22T23:21:05.386Z,0
2017-08-22T23:21:34.911Z,0
2017-08-22T23:22:03.731Z,0
2017-08-22T23:22:31.689Z,0
2017-08-22T23:23:00.569Z,0
2017-08-22T23:23:28.625Z,0
2017-08-22T23:23:57.460Z,0
2017-08-22T23:24:25.511Z,0
2017-08-22T23:24:54.332Z,0
2017-08-22T23:25:22.384Z,0
2017-08-22T23:25:50.442Z,0
2017-08-22T23:26:19.272Z,0
2017-08-22T23:26:47.423Z,0
2017-08-22T23:27:16.158Z,0
2017-08-22T23:27:44.987Z,0
2017-08-22T23:28:13.645Z,0
2017-08-22T23:28:42.377Z,0
2017-08-22T23:29:11.193Z,0
2017-08-22T23:29:39.146Z,0
2017-08-22T23:30:07.980Z,0
2017-08-22T23:30:36.038Z,0
2017-08-22T23:31:04.114Z,0
2017-08-22T23:31:32.862Z,0
2017-08-22T23:32:00.815Z,0
2017-08-22T23:32:28.680Z,0
2017-08-22T23:32:57.513Z,0
2017-08-22T23:33:25.472Z,0
2017-08-22T23:33:53.442Z,0
2017-08-22T23:34:21.488Z,0
2017-08-22T23:34:51.895Z,0
2017-08-22T23:35:19.946Z,0
2017-08-22T23:35:47.912Z,0
2017-08-22T23:36:15.969Z,0
2017-08-22T23:36:44.029Z,0
2017-08-22T23:37:12.852Z,0
2017-08-22T23:37:42.470Z,0
2017-08-22T23:38:10.519Z,0
2017-08-22T23:38:40.134Z,0
2017-08-22T23:39:08.964Z,0
2017-08-22T23:39:36.915Z,0
2017-08-22T23:40:05.740Z,0
2017-08-22T23:40:36.046Z,0
2017-08-22T23:41:04.887Z,0
2017-08-22T23:41:32.934Z,0
2017-08-22T23:42:01.086Z,0
2017-08-22T23:42:29.043Z,0
2017-08-22T23:42:58.188Z,0
2017-08-22T23:43:27.030Z,0
2017-08-22T23:43:55.084Z,0
2017-08-22T23:44:23.913Z,0
2017-08-22T23:44:51.887Z,0
2017-08-22T23:45:19.941Z,0
2017-08-22T23:45:48.769Z,0
2017-08-22T23:46:16.835Z,0
2017-08-22T23:46:44.799Z,0
2017-08-22T23:47:12.667Z,0
2017-08-22T23:47:40.623Z,0
2017-08-22T23:48:08.505Z,0
2017-08-22T23:48:38.119Z,0
2017-08-22T23:49:06.176Z,0
2017-08-22T23:49:35.007Z,0
2017-08-22T23:50:03.058Z,0
2017-08-22T23:50:31.099Z,0
2017-08-22T23:50:59.911Z,0
2017-08-22T23:51:28.649Z,0
2017-08-22T23:51:56.604Z,0
2017-08-22T23:52:24.643Z,0
2017-08-22T23:52:53.469Z,0
2017-08-22T23:53:23.871Z,0
2017-08-22T23:53:51.923Z,0
2017-08-22T23:54:20.659Z,0
2017-08-22T23:54:49.409Z,0
2017-08-22T23:55:17.464Z,0
2017-08-22T23:55:46.288Z,0
2017-08-22T23:56:15.132Z,0
2017-08-22T23:56:43.964Z,0
2017-08-22T23:57:12.130Z,0
2017-08-22T23:57:40.163Z,0
2017-08-22T23:58:08.894Z,0
2017-08-22T23:58:36.943Z,0
2017-08-22T23:59:04.983Z,0
2017-08-22T23:59:33.028Z,0
